createdAt,value
2022-11-22T00:00:38.468Z,2.60
2022-11-22T00:03:11.322Z,3.28
2022-11-22T00:05:44.361Z,3.47
2022-11-22T00:08:19.170Z,3.58
2022-11-22T00:10:52.645Z,2.90
2022-11-22T00:13:25.450Z,2.97
2022-11-22T00:15:59.962Z,3.00
2022-11-22T00:18:33.232Z,3.17
2022-11-22T00:21:07.504Z,3.25
2022-11-22T00:23:42.033Z,3.13
2022-11-22T00:26:15.086Z,2.88
2022-11-22T00:28:47.879Z,2.80
2022-11-22T00:31:20.983Z,3.08
2022-11-22T00:33:53.742Z,2.60
2022-11-22T00:36:26.805Z,2.42
2022-11-22T00:39:01.074Z,2.83
2022-11-22T00:41:34.064Z,2.85
2022-11-22T00:44:07.043Z,2.83
2022-11-22T00:46:40.045Z,3.17
2022-11-22T00:49:12.949Z,3.72
2022-11-22T00:51:45.832Z,3.10
2022-11-22T00:54:20.128Z,3.00
2022-11-22T00:56:52.947Z,2.92
2022-11-22T00:59:25.747Z,2.80
2022-11-22T01:01:58.606Z,3.13
2022-11-22T01:04:31.643Z,2.97
2022-11-22T01:07:04.713Z,3.40
2022-11-22T01:09:38.933Z,3.63
2022-11-22T01:12:11.804Z,3.20
2022-11-22T01:14:44.772Z,3.25
2022-11-22T01:17:17.908Z,3.20
2022-11-22T01:19:50.711Z,3.33
2022-11-22T01:22:23.588Z,3.15
2022-11-22T01:24:58.238Z,3.15
2022-11-22T01:27:31.030Z,3.10
2022-11-22T01:30:04.001Z,3.17
2022-11-22T01:32:36.818Z,3.35
2022-11-22T01:35:10.788Z,3.42
2022-11-22T01:37:43.673Z,3.20
2022-11-22T01:40:17.942Z,3.67
2022-11-22T01:42:53.818Z,3.00
2022-11-22T01:45:43.499Z,3.40
2022-11-22T01:48:23.075Z,2.80
2022-11-22T01:51:02.710Z,2.55
2022-11-22T01:53:38.560Z,2.45
2022-11-22T01:56:15.618Z,2.80
2022-11-22T01:58:54.419Z,2.78
2022-11-22T02:01:28.631Z,2.55
2022-11-22T02:04:03.734Z,2.25
2022-11-22T02:06:43.579Z,2.80
2022-11-22T02:09:17.864Z,2.50
2022-11-22T02:11:55.040Z,2.50
2022-11-22T02:14:29.363Z,2.40
2022-11-22T02:17:02.159Z,2.40
2022-11-22T02:19:41.927Z,2.55
2022-11-22T02:22:30.630Z,2.70
2022-11-22T02:25:10.115Z,3.20
2022-11-22T02:27:44.721Z,2.60
2022-11-22T02:30:18.974Z,3.13
2022-11-22T02:32:51.947Z,3.05
2022-11-22T02:35:27.234Z,3.15
2022-11-22T02:38:03.038Z,2.72
2022-11-22T02:40:39.319Z,3.03
2022-11-22T02:43:16.630Z,2.90
2022-11-22T02:45:49.487Z,2.63
2022-11-22T02:48:22.713Z,2.92
2022-11-22T02:50:55.550Z,2.83
2022-11-22T02:53:30.963Z,2.90
2022-11-22T02:56:03.834Z,3.35
2022-11-22T02:58:38.163Z,2.67
2022-11-22T03:01:11.317Z,3.30
2022-11-22T03:03:44.148Z,3.05
2022-11-22T03:06:17.089Z,3.17
2022-11-22T03:08:55.870Z,3.10
2022-11-22T03:11:29.544Z,2.50
2022-11-22T03:14:03.693Z,2.97
2022-11-22T03:16:36.506Z,2.80
2022-11-22T03:19:09.710Z,2.80
2022-11-22T03:21:43.945Z,2.53
2022-11-22T03:24:16.903Z,2.47
2022-11-22T03:26:50.868Z,2.63
2022-11-22T03:29:25.413Z,2.30
2022-11-22T03:31:58.228Z,2.35
2022-11-22T03:34:31.016Z,2.40
2022-11-22T03:37:03.864Z,2.50
2022-11-22T03:39:36.753Z,2.40
2022-11-22T03:42:09.944Z,2.28
2022-11-22T03:44:44.112Z,2.13
2022-11-22T03:47:16.958Z,2.55
2022-11-22T03:49:49.769Z,2.65
2022-11-22T03:52:22.620Z,2.55
2022-11-22T03:54:55.397Z,2.10
2022-11-22T03:57:28.481Z,2.30
2022-11-22T04:00:02.706Z,2.03
2022-11-22T04:02:35.546Z,2.15
2022-11-22T04:05:09.109Z,1.85
2022-11-22T04:07:42.075Z,2.03
2022-11-22T04:10:17.757Z,2.00
2022-11-22T04:12:57.363Z,2.17
2022-11-22T04:15:30.890Z,1.98
2022-11-22T04:18:04.104Z,1.90
2022-11-22T04:20:54.597Z,1.80
2022-11-22T04:23:33.555Z,1.80
2022-11-22T04:26:05.732Z,1.75
2022-11-22T04:31:50.207Z,1.75
2022-11-22T04:34:23.260Z,1.67
2022-11-22T04:36:55.982Z,1.77
2022-11-22T04:39:29.119Z,1.63
2022-11-22T04:42:19.991Z,1.63
2022-11-22T04:44:52.894Z,1.70
2022-11-22T04:47:49.993Z,1.60
2022-11-22T04:50:40.523Z,1.70
2022-11-22T04:53:13.763Z,1.42
2022-11-22T04:55:48.318Z,2.00
2022-11-22T04:58:21.517Z,1.85
2022-11-22T05:00:54.818Z,1.67
2022-11-22T05:03:29.171Z,1.65
2022-11-22T05:06:02.856Z,1.80
2022-11-22T05:08:35.624Z,1.80
2022-11-22T05:11:08.482Z,2.40
2022-11-22T05:13:43.845Z,2.28
2022-11-22T05:16:16.991Z,1.42
2022-11-22T05:19:00.202Z,1.83
2022-11-22T05:21:35.690Z,1.55
2022-11-22T05:24:08.039Z,1.70
2022-11-22T05:26:41.972Z,1.70
2022-11-22T05:29:14.743Z,1.65
2022-11-22T05:31:51.319Z,1.80
2022-11-22T05:34:25.909Z,1.70
2022-11-22T05:36:58.830Z,1.98
2022-11-22T05:39:31.960Z,2.50
2022-11-22T05:42:06.026Z,1.92
2022-11-22T05:44:38.829Z,1.88
2022-11-22T05:47:11.841Z,1.50
2022-11-22T05:49:46.197Z,1.65
2022-11-22T05:52:19.041Z,1.70
2022-11-22T05:54:51.861Z,1.40
2022-11-22T05:57:25.252Z,1.35
2022-11-22T05:59:58.033Z,1.40
2022-11-22T06:02:32.444Z,1.02
2022-11-22T06:05:07.358Z,1.17
2022-11-22T06:07:40.329Z,1.50
2022-11-22T06:10:13.135Z,1.15
2022-11-22T06:12:46.243Z,1.38
2022-11-22T06:15:19.069Z,1.30
2022-11-22T06:17:51.875Z,1.40
2022-11-22T06:20:26.081Z,1.15
2022-11-22T06:22:59.324Z,1.00
2022-11-22T06:25:33.357Z,1.35
2022-11-22T06:28:06.166Z,1.10
2022-11-22T06:30:39.040Z,1.10
2022-11-22T06:33:11.932Z,1.08
2022-11-22T06:35:46.124Z,1.00
2022-11-22T06:38:19.114Z,1.00
2022-11-22T06:40:51.900Z,1.25
2022-11-22T06:43:24.709Z,0.82
2022-11-22T06:45:57.853Z,1.10
2022-11-22T06:48:32.010Z,1.15
2022-11-22T06:51:08.166Z,1.17
2022-11-22T06:53:49.345Z,1.02
2022-11-22T06:56:24.283Z,1.00
2022-11-22T06:58:57.837Z,0.70
2022-11-22T07:01:31.759Z,0.88
2022-11-22T07:04:05.628Z,0.85
2022-11-22T07:06:40.179Z,0.80
2022-11-22T07:09:13.323Z,0.80
2022-11-22T07:11:46.104Z,0.70
2022-11-22T07:14:18.980Z,1.45
2022-11-22T07:16:51.770Z,0.88
2022-11-22T07:19:24.589Z,0.90
2022-11-22T07:21:58.760Z,0.85
2022-11-22T07:24:31.543Z,0.88
2022-11-22T07:27:04.461Z,0.98
2022-11-22T07:29:37.411Z,0.90
2022-11-22T07:32:10.230Z,0.90
2022-11-22T07:34:43.034Z,0.60
2022-11-22T07:37:17.240Z,0.75
2022-11-22T07:39:50.072Z,0.68
2022-11-22T07:42:26.144Z,0.70
2022-11-22T07:44:59.386Z,0.93
2022-11-22T07:47:33.222Z,0.63
2022-11-22T07:50:07.271Z,0.60
2022-11-22T07:52:41.452Z,0.90
2022-11-22T07:55:14.552Z,0.60
2022-11-22T07:57:47.339Z,0.90
2022-11-22T08:00:20.903Z,0.50
2022-11-22T08:02:53.945Z,1.00
2022-11-22T08:05:27.589Z,0.57
2022-11-22T08:08:01.867Z,0.50
2022-11-22T08:10:34.909Z,0.57
2022-11-22T08:13:07.769Z,0.50
2022-11-22T08:15:40.587Z,0.68
2022-11-22T08:18:13.373Z,0.88
2022-11-22T08:20:46.193Z,0.63
2022-11-22T08:23:20.366Z,0.80
2022-11-22T08:25:53.214Z,0.60
2022-11-22T08:28:26.067Z,0.80
2022-11-22T08:31:04.113Z,0.60
2022-11-22T08:33:37.204Z,0.50
2022-11-22T08:36:10.205Z,0.40
2022-11-22T08:38:44.571Z,0.63
2022-11-22T08:41:17.455Z,0.65
2022-11-22T08:43:51.389Z,0.90
2022-11-22T08:46:24.370Z,0.73
2022-11-22T08:48:57.158Z,0.70
2022-11-22T08:51:29.968Z,0.55
2022-11-22T08:54:04.227Z,1.05
2022-11-22T08:56:37.029Z,1.60
2022-11-22T08:59:09.851Z,1.20
2022-11-22T09:01:42.944Z,1.10
2022-11-22T09:04:15.804Z,1.33
2022-11-22T09:09:43.187Z,0.60
2022-11-22T09:12:16.196Z,0.60
2022-11-22T09:14:49.117Z,0.95
2022-11-22T09:17:22.121Z,0.70
2022-11-22T09:19:54.876Z,0.60
2022-11-22T09:22:28.708Z,0.70
2022-11-22T09:25:03.333Z,0.60
2022-11-22T09:27:36.922Z,0.80
2022-11-22T09:30:10.606Z,0.70
2022-11-22T09:32:44.592Z,0.88
2022-11-22T09:35:20.202Z,0.60
2022-11-22T09:37:53.495Z,0.93
2022-11-22T09:40:27.918Z,0.85
2022-11-22T09:43:18.321Z,0.70
2022-11-22T09:46:09.912Z,1.10
2022-11-22T09:49:13.349Z,0.63
2022-11-22T09:51:53.759Z,0.50
2022-11-22T09:54:30.155Z,0.63
2022-11-22T09:57:10.230Z,0.80
2022-11-22T09:59:47.475Z,0.82
2022-11-22T10:02:26.809Z,0.77
2022-11-22T10:05:03.484Z,0.68
2022-11-22T10:07:40.486Z,0.80
2022-11-22T10:10:18.735Z,1.20
2022-11-22T10:13:04.952Z,1.00
2022-11-22T10:15:45.996Z,0.93
2022-11-22T10:18:25.116Z,1.20
2022-11-22T10:20:57.999Z,0.90
2022-11-22T10:23:32.781Z,0.80
2022-11-22T10:26:13.151Z,0.93
2022-11-22T10:28:57.615Z,0.45
2022-11-22T10:31:36.994Z,0.70
2022-11-22T10:34:21.339Z,0.43
2022-11-22T10:37:01.966Z,0.47
2022-11-22T10:39:56.806Z,0.80
2022-11-22T10:42:49.742Z,0.70
2022-11-22T10:45:30.804Z,0.60
2022-11-22T10:48:17.878Z,0.90
2022-11-22T10:51:01.117Z,1.00
2022-11-22T10:53:48.153Z,0.95
2022-11-22T10:56:28.108Z,0.70
2022-11-22T10:59:25.859Z,0.70
2022-11-22T11:02:16.389Z,0.68
2022-11-22T11:04:51.131Z,0.75
2022-11-22T11:07:25.927Z,0.50
2022-11-22T11:10:11.524Z,0.80
2022-11-22T11:12:51.125Z,0.80
2022-11-22T11:15:29.256Z,0.73
2022-11-22T11:18:07.204Z,1.00
2022-11-22T11:20:43.739Z,0.60
2022-11-22T11:23:16.844Z,0.68
2022-11-22T11:25:53.988Z,0.68
2022-11-22T11:28:30.095Z,0.80
2022-11-22T11:31:09.050Z,0.80
2022-11-22T11:33:45.856Z,0.68
2022-11-22T11:36:22.096Z,1.17
2022-11-22T11:38:56.291Z,1.30
2022-11-22T11:41:31.410Z,1.00
2022-11-22T11:44:05.792Z,0.77
2022-11-22T11:46:46.696Z,0.75
2022-11-22T11:49:25.713Z,0.73
2022-11-22T11:52:00.616Z,0.70
2022-11-22T11:54:43.061Z,0.73
2022-11-22T11:57:20.158Z,0.70
2022-11-22T11:59:55.401Z,0.52
2022-11-22T12:02:34.188Z,0.80
2022-11-22T12:05:27.748Z,0.63
2022-11-22T12:08:02.049Z,0.60
2022-11-22T12:10:42.355Z,0.82
2022-11-22T12:13:24.727Z,0.70
2022-11-22T12:16:02.681Z,0.70
2022-11-22T12:18:40.268Z,0.65
2022-11-22T12:21:26.258Z,0.70
2022-11-22T12:24:26.887Z,1.30
2022-11-22T12:26:57.408Z,0.82
2022-11-22T12:29:31.571Z,0.75
2022-11-22T12:32:08.795Z,0.70
2022-11-22T12:34:53.028Z,0.90
2022-11-22T12:37:32.480Z,0.75
2022-11-22T12:40:16.151Z,0.60
2022-11-22T12:42:51.565Z,0.70
2022-11-22T12:45:31.880Z,0.70
2022-11-22T12:48:08.419Z,0.88
2022-11-22T12:50:45.464Z,1.02
2022-11-22T12:53:24.591Z,1.40
2022-11-22T12:56:05.730Z,1.20
2022-11-22T12:58:43.815Z,1.10
2022-11-22T13:01:21.830Z,1.00
2022-11-22T13:04:01.126Z,0.80
2022-11-22T13:06:39.086Z,0.95
2022-11-22T13:09:19.134Z,0.63
2022-11-22T13:11:58.716Z,1.13
2022-11-22T13:14:35.147Z,0.90
2022-11-22T13:17:09.176Z,0.68
2022-11-22T13:19:49.248Z,0.70
2022-11-22T13:22:29.696Z,0.70
2022-11-22T13:25:22.857Z,0.75
2022-11-22T13:27:59.334Z,0.70
2022-11-22T13:30:35.115Z,1.10
2022-11-22T13:33:24.460Z,0.73
2022-11-22T13:36:25.807Z,0.65
2022-11-22T13:39:01.244Z,0.60
2022-11-22T13:41:45.263Z,0.50
2022-11-22T13:44:26.947Z,0.93
2022-11-22T13:47:02.417Z,0.50
2022-11-22T13:49:48.194Z,0.40
2022-11-22T13:52:31.062Z,0.75
2022-11-22T13:55:27.114Z,0.65
2022-11-22T13:58:51.141Z,0.57
2022-11-22T14:02:02.659Z,0.50
2022-11-22T14:04:43.706Z,0.30
2022-11-22T14:07:40.686Z,0.63
2022-11-22T14:10:31.262Z,0.68
2022-11-22T14:13:34.972Z,0.60
2022-11-22T14:16:22.963Z,0.55
2022-11-22T14:19:07.907Z,0.55
2022-11-22T14:22:00.705Z,0.40
2022-11-22T14:24:54.123Z,0.50
2022-11-22T14:27:38.779Z,0.60
2022-11-22T14:30:18.585Z,0.45
2022-11-22T14:33:16.441Z,0.30
2022-11-22T14:36:16.988Z,0.47
2022-11-22T14:38:49.776Z,0.82
2022-11-22T14:41:46.762Z,0.47
2022-11-22T14:44:20.929Z,0.50
2022-11-22T14:46:58.405Z,0.30
2022-11-22T14:49:43.121Z,0.50
2022-11-22T14:52:22.142Z,0.70
2022-11-22T14:54:59.381Z,0.45
2022-11-22T14:57:35.447Z,0.60
2022-11-22T15:00:18.136Z,0.40
2022-11-22T15:03:17.395Z,0.55
2022-11-22T15:09:16.279Z,0.30
2022-11-22T15:09:46.727Z,0.40
2022-11-22T15:12:41.494Z,0.85
2022-11-22T15:57:33.585Z,0.52
2022-11-22T16:00:11.610Z,0.45
2022-11-22T16:02:50.318Z,0.60
2022-11-22T16:06:06.430Z,0.43
2022-11-22T16:08:31.080Z,0.50
2022-11-22T16:11:05.912Z,0.30
2022-11-22T16:13:40.109Z,0.50
2022-11-22T16:16:21.680Z,0.40
2022-11-22T16:18:54.504Z,0.40
2022-11-22T16:21:30.397Z,0.40
2022-11-22T16:24:12.750Z,0.47
2022-11-22T16:26:56.154Z,0.60
2022-11-22T16:29:34.084Z,0.52
2022-11-22T16:32:12.115Z,0.40
2022-11-22T16:34:44.939Z,0.40
2022-11-22T16:37:30.645Z,0.70
2022-11-22T16:40:06.824Z,0.60
2022-11-22T16:42:40.723Z,0.70
2022-11-22T16:45:19.102Z,0.80
2022-11-22T16:48:16.267Z,0.50
2022-11-22T16:50:50.980Z,0.50
2022-11-22T16:53:23.981Z,0.60
2022-11-22T16:55:56.848Z,0.70
2022-11-22T16:58:30.039Z,0.90
2022-11-22T17:01:04.584Z,0.75
2022-11-22T17:03:39.953Z,0.80
2022-11-22T17:06:18.379Z,0.40
2022-11-22T17:08:53.544Z,0.50
2022-11-22T17:11:28.007Z,0.80
2022-11-22T17:14:01.605Z,0.80
2022-11-22T17:16:35.886Z,0.88
2022-11-22T17:19:30.386Z,0.70
2022-11-22T17:22:01.886Z,0.88
2022-11-22T17:24:35.597Z,0.70
2022-11-22T17:27:08.418Z,0.55
2022-11-22T17:29:56.884Z,0.50
2022-11-22T17:32:31.471Z,0.70
2022-11-22T17:35:04.297Z,0.98
2022-11-22T17:37:37.101Z,0.93
2022-11-22T17:40:11.959Z,0.52
2022-11-22T17:42:44.730Z,0.70
2022-11-22T17:45:17.592Z,0.80
2022-11-22T17:47:52.813Z,0.57
2022-11-22T17:50:25.641Z,0.57
2022-11-22T17:52:58.415Z,0.77
2022-11-22T17:55:48.161Z,0.80
2022-11-22T17:58:24.302Z,1.05
2022-11-22T18:01:04.402Z,1.10
2022-11-22T18:03:39.128Z,0.77
2022-11-22T18:06:13.080Z,1.10
2022-11-22T18:08:47.380Z,0.80
2022-11-22T18:11:20.413Z,0.80
2022-11-22T18:13:53.432Z,1.13
2022-11-22T18:16:28.572Z,1.15
2022-11-22T18:19:03.087Z,0.70
2022-11-22T18:21:35.905Z,0.68
2022-11-22T18:24:09.511Z,0.70
2022-11-22T18:26:42.625Z,0.93
2022-11-22T18:32:08.581Z,0.90
2022-11-22T18:34:42.906Z,0.82
2022-11-22T18:37:15.877Z,0.85
2022-11-22T18:39:48.725Z,0.90
2022-11-22T18:42:23.491Z,0.98
2022-11-22T18:44:56.481Z,0.88
2022-11-22T18:47:29.394Z,1.13
2022-11-22T18:50:04.845Z,0.90
2022-11-22T18:52:39.056Z,1.20
2022-11-22T18:55:15.719Z,0.85
2022-11-22T18:57:52.218Z,0.70
2022-11-22T19:00:25.173Z,0.63
2022-11-22T19:02:59.455Z,0.60
2022-11-22T19:05:33.652Z,0.70
2022-11-22T19:08:08.988Z,0.40
2022-11-22T19:10:43.900Z,0.38
2022-11-22T19:13:17.104Z,0.52
2022-11-22T19:15:50.623Z,0.40
2022-11-22T19:18:23.493Z,0.70
2022-11-22T19:20:57.666Z,0.75
2022-11-22T19:23:31.528Z,0.60
2022-11-22T19:26:04.859Z,0.70
2022-11-22T19:28:37.872Z,0.75
2022-11-22T19:31:13.230Z,1.10
2022-11-22T19:33:46.995Z,1.92
2022-11-22T19:36:25.323Z,1.70
2022-11-22T19:39:05.423Z,1.48
2022-11-22T19:41:38.465Z,2.08
2022-11-22T19:44:12.317Z,1.50
2022-11-22T19:46:45.144Z,1.27
2022-11-22T19:49:18.137Z,0.88
2022-11-22T19:51:52.320Z,1.08
2022-11-22T19:54:25.237Z,0.75
2022-11-22T19:56:58.016Z,0.57
2022-11-22T19:59:33.718Z,0.80
2022-11-22T20:02:07.342Z,0.90
2022-11-22T20:04:40.250Z,1.35
2022-11-22T20:07:14.468Z,0.90
2022-11-22T20:09:47.288Z,0.88
2022-11-22T20:12:20.055Z,1.13
2022-11-22T20:14:52.845Z,0.82
2022-11-22T20:17:25.662Z,0.80
2022-11-22T20:19:58.520Z,0.80
2022-11-22T20:22:32.766Z,0.85
2022-11-22T20:25:06.419Z,1.17
2022-11-22T20:27:39.282Z,0.85
2022-11-22T20:30:13.069Z,1.00
2022-11-22T20:32:45.997Z,0.82
2022-11-22T20:35:18.895Z,0.80
2022-11-22T20:37:53.126Z,0.70
2022-11-22T20:40:26.027Z,0.82
2022-11-22T20:42:58.818Z,1.55
2022-11-22T20:45:32.534Z,1.17
2022-11-22T20:48:05.903Z,1.05
2022-11-22T20:50:38.740Z,1.20
2022-11-22T20:53:12.932Z,1.13
2022-11-22T20:55:45.803Z,1.08
2022-11-22T20:58:18.899Z,1.75
2022-11-22T21:00:51.824Z,1.65
2022-11-22T21:03:26.021Z,1.58
2022-11-22T21:06:01.125Z,2.55
2022-11-22T21:08:35.390Z,2.70
2022-11-22T21:11:10.723Z,2.28
2022-11-22T21:13:44.809Z,1.50
2022-11-22T21:16:24.473Z,1.05
2022-11-22T21:18:59.513Z,1.45
2022-11-22T21:21:33.527Z,0.80
2022-11-22T21:24:08.857Z,1.60
2022-11-22T21:26:41.780Z,1.63
2022-11-22T21:29:16.663Z,1.83
2022-11-22T21:31:49.703Z,2.00
2022-11-22T21:34:22.538Z,2.75
2022-11-22T21:36:55.386Z,3.28
2022-11-22T21:39:29.629Z,1.65
2022-11-22T21:42:02.637Z,1.52
2022-11-22T21:44:35.419Z,1.45
2022-11-22T21:47:08.246Z,1.10
2022-11-22T21:49:41.119Z,0.93
2022-11-22T21:52:14.223Z,0.85
2022-11-22T21:54:48.780Z,0.98
2022-11-22T21:57:21.707Z,0.80
2022-11-22T21:59:54.496Z,1.00
2022-11-22T22:02:29.614Z,0.88
2022-11-22T22:05:02.600Z,0.70
2022-11-22T22:07:52.293Z,0.60
2022-11-22T22:10:27.038Z,0.60
2022-11-22T22:12:59.959Z,0.60
2022-11-22T22:15:32.780Z,0.70
2022-11-22T22:18:05.648Z,0.60
2022-11-22T22:20:38.436Z,0.57
2022-11-22T22:23:11.280Z,0.68
2022-11-22T22:25:45.479Z,0.75
2022-11-22T22:28:18.538Z,0.60
2022-11-22T22:30:51.307Z,1.00
2022-11-22T22:33:24.151Z,0.60
2022-11-22T22:35:57.767Z,0.60
2022-11-22T22:38:31.523Z,0.70
2022-11-22T22:41:06.619Z,0.65
2022-11-22T22:43:41.841Z,0.45
2022-11-22T22:46:16.609Z,0.70
2022-11-22T22:48:50.716Z,1.23
2022-11-22T22:51:32.027Z,0.60
2022-11-22T22:54:06.078Z,0.88
2022-11-22T22:56:41.547Z,0.55
2022-11-22T22:59:14.392Z,0.55
2022-11-22T23:01:47.213Z,0.50
2022-11-22T23:04:20.046Z,0.50
2022-11-22T23:06:52.956Z,0.50
2022-11-22T23:09:25.767Z,0.50
2022-11-22T23:12:11.745Z,0.70
2022-11-22T23:14:44.592Z,0.40
2022-11-22T23:17:17.424Z,0.47
2022-11-22T23:19:50.246Z,0.30
2022-11-22T23:22:25.910Z,0.50
2022-11-22T23:24:59.019Z,0.30
2022-11-22T23:27:33.244Z,0.40
2022-11-22T23:30:07.262Z,0.47
2022-11-22T23:32:40.066Z,0.57
2022-11-22T23:35:12.889Z,0.50
2022-11-22T23:37:45.646Z,0.30
2022-11-22T23:40:18.453Z,0.43
2022-11-22T23:42:52.600Z,0.50
2022-11-22T23:45:25.488Z,0.40
2022-11-22T23:47:58.299Z,0.63
2022-11-22T23:50:36.073Z,0.60
2022-11-22T23:53:10.280Z,0.63
2022-11-22T23:55:43.342Z,0.57
2022-11-22T23:58:17.487Z,0.50
